MSC Mirjam — D5MF8 — position and weather

sailwx.info

Track history (hours):
 
Tides and Currents Weather Stations Pressure Air Temp Water Temp Dewpoint Dewpoint Depression Visibility Wind Speed Wind Dir Waves Ship Positions

MSC Mirjam

Last reported at 2018-Jul-23 04:01 UTC. Time now 2018-Jul-23 04:08 UTC.
Position N 52°32' E 003°38'.

Length 400 m; draft 12.4 m.

Type: Ship (hazmat cat A). MMSI: 636017684.

Date/timePositionNaut miles runAvg speedWind from/ knotsBaromVisibWave heightAir tempDewpointWater temp
2018-Jul-23 04:01N 52°32' E 003°38'816.1
2018-Jul-23 03:31N 52°24' E 003°32'816.3
2018-Jul-23 03:00N 52°18' E 003°23'816.2
2018-Jul-23 02:30N 52°13' E 003°14'816.3
2018-Jul-23 02:00N 52°06' E 003°05'816.7
2018-Jul-23 01:30N 52°00' E 002°56'816.8
2018-Jul-23 01:00N 51°54' E 002°47'817.0
2018-Jul-23 00:31N 51°47' E 002°38'917.2
2018-Jul-23 00:00N 51°41' E 002°29'917.4
2018-Jul-22 23:31N 51°34' E 002°20'917.1
2018-Jul-22 23:01N 51°27' E 002°12'815.3
2018-Jul-22 22:31N 51°20' E 002°07'714.4
2018-Jul-22 22:01N 51°14' E 002°02'816.2
2018-Jul-22 21:31N 51°10' E 001°51'816.1
2018-Jul-22 21:01N 51°05' E 001°42'815.3
2018-Jul-22 20:30N 50°60' E 001°32'917.9
2018-Jul-22 20:00N 50°52' E 001°25'917.2
2018-Jul-22 19:30N 50°44' E 001°21'816.8
2018-Jul-22 19:00N 50°38' E 001°12'816.8
2018-Jul-22 18:30N 50°32' E 001°02'816.4
2018-Jul-22 18:00N 50°29' E 000°50'816.7
2018-Jul-22 17:30N 50°26' E 000°38'816.0
2018-Jul-22 17:00N 50°24' E 000°26'816.2
2018-Jul-22 16:30N 50°22' E 000°13'816.1
2018-Jul-22 16:00N 50°19' E 000°01'816.1
2018-Jul-22 15:30N 50°17' W 000°11'816.8
2018-Jul-22 15:00N 50°15' W 000°24'917.4
2018-Jul-22 14:30N 50°12' W 000°37'917.2
2018-Jul-22 14:01N 50°10' W 000°49'816.8
2018-Jul-22 13:31N 50°08' W 001°02'817.0
2018-Jul-22 13:01N 50°06' W 001°15'917.7
2018-Jul-22 12:31N 50°03' W 001°28'917.2
2018-Jul-22 12:01N 50°01' W 001°41'917.3
2018-Jul-22 11:31N 49°59' W 001°54'917.1
2018-Jul-22 10:59N 49°56' W 002°07'816.8
2018-Jul-22 10:31N 49°54' W 002°19'816.7
2018-Jul-22 10:00N 49°52' W 002°32'816.5
2018-Jul-22 09:30N 49°49' W 002°44'816.6
2018-Jul-22 09:00N 49°47' W 002°56'816.8
2018-Jul-22 08:30N 49°42' W 003°07'816.7
2018-Jul-22 08:00N 49°38' W 003°18'816.8
2018-Jul-22 07:30N 49°34' W 003°30'1016.8
2018-Jul-22 06:56N 49°30' W 003°43'716.6
2018-Jul-22 06:30N 49°26' W 003°53'816.7
2018-Jul-22 06:00N 49°22' W 004°04'918.1
2018-Jul-22 05:30N 49°18' W 004°16'918.4
2018-Jul-22 05:00N 49°13' W 004°28'918.5
2018-Jul-22 04:30N 49°09' W 004°40'918.6
2018-Jul-22 04:00N 49°04' W 004°53'1018.6
2018-Jul-22 03:29N 48°59' W 005°06'918.3
2018-Jul-22 03:00N 48°55' W 005°17'918.6
2018-Jul-22 02:31N 48°50' W 005°29'918.2
2018-Jul-22 02:00N 48°44' W 005°40'918.5
2018-Jul-22 01:31N 48°36' W 005°46'918.3
2018-Jul-22 01:01N 48°28' W 005°53'54618.5
2018-Jul-20 19:35N 39°50' W 009°52'2319.0
2018-Jul-20 18:24N 39°27' W 009°52'1018.9
2018-Jul-20 17:50N 39°16' W 009°51'619.0
2018-Jul-20 17:30N 39°10' W 009°51'918.7
2018-Jul-20 17:00N 39°01' W 009°51'1019.0
2018-Jul-20 16:30N 38°51' W 009°51'1019.2
2018-Jul-20 16:01N 38°42' W 009°51'1019.4
2018-Jul-20 15:30N 38°32' W 009°48'1019.3
2018-Jul-20 15:00N 38°23' W 009°46'1019.0
2018-Jul-20 14:30N 38°14' W 009°42'1019.0
2018-Jul-20 13:59N 38°04' W 009°40'919.0
2018-Jul-20 13:30N 37°55' W 009°38'1018.8
2018-Jul-20 13:00N 37°46' W 009°35'918.6
2018-Jul-20 12:31N 37°37' W 009°32'1019.4
2018-Jul-20 12:00N 37°27' W 009°29'6817.4
2018-Jul-20 08:06N 36°36' W 008°34'219.5
2018-Jul-20 08:01N 36°35' W 008°32'1319.7
2018-Jul-20 07:22N 36°31' W 008°18'919.7
2018-Jul-20 06:55N 36°28' W 008°07'820.1
2018-Jul-20 06:30N 36°26' W 007°57'1019.9
2018-Jul-20 06:00N 36°23' W 007°45'1120.1
2018-Jul-20 05:27N 36°19' W 007°32'1020.3
2018-Jul-20 04:59N 36°16' W 007°21'6219.7
2018-Jul-20 01:51N 35°58' W 006°08'819.3
2018-Jul-20 01:24N 35°59' W 005°57'1917.5
2018-Jul-20 00:19N 35°59' W 005°33'515.0
2018-Jul-19 23:58N 36°01' W 005°27'21718.6
2018-Jul-19 12:18N 36°35' W 001°01'620.5
2018-Jul-19 12:00N 36°36' W 000°53'1020.6
2018-Jul-19 11:31N 36°38' W 000°41'2320.7
2018-Jul-19 10:23N 36°42' W 000°12'1020.6
2018-Jul-19 09:53N 36°43' E 000°00'820.3
2018-Jul-19 09:30N 36°44' E 000°10'1019.3
2018-Jul-19 09:00N 36°46' E 000°22'1018.8
2018-Jul-19 08:28N 36°48' E 000°34'918.8
2018-Jul-19 08:00N 36°49' E 000°45'1019.1
2018-Jul-19 07:29N 36°51' E 000°57'919.7
2018-Jul-19 07:01N 36°52' E 001°09'1019.6
2018-Jul-19 06:29N 36°54' E 001°21'919.6
2018-Jul-19 06:00N 36°55' E 001°33'1019.6
2018-Jul-19 05:31N 36°57' E 001°45'2219.5
2018-Jul-19 04:24N 37°00' E 002°12'1219.3
2018-Jul-19 03:46N 37°02' E 002°27'519.9
2018-Jul-19 03:31N 37°03' E 002°33'2620.4
2018-Jul-19 02:15N 37°07' E 003°05'520.8
2018-Jul-19 02:00N 37°08' E 003°11'1021.0
2018-Jul-19 01:30N 37°10' E 003°24'4020.9
2018-Jul-18 23:34N 37°16' E 004°14'120.9
2018-Jul-18 23:30N 37°16' E 004°16'1020.6
2018-Jul-18 23:00N 37°18' E 004°29'1020.3
2018-Jul-18 22:30N 37°20' E 004°41'1020.3
2018-Jul-18 22:00N 37°22' E 004°54'1520.3
2018-Jul-18 21:17N 37°24' E 005°12'620.9
2018-Jul-18 21:00N 37°25' E 005°19'1121.0
2018-Jul-18 20:30N 37°27' E 005°33'1121.2
2018-Jul-18 19:58N 37°28' E 005°47'2321.0
2018-Jul-18 18:51N 37°32' E 006°16'721.2
2018-Jul-18 18:30N 37°34' E 006°25'4121.0
2018-Jul-18 16:32N 37°40' E 007°16'121.0
2018-Jul-18 16:30N 37°40' E 007°17'1020.6
2018-Jul-18 16:00N 37°42' E 007°30'1020.5
2018-Jul-18 15:30N 37°44' E 007°43'1020.6
2018-Jul-18 15:00N 37°45' E 007°56'27118.7
2018-Jul-18 00:32N 37°05' E 013°33'119.6
2018-Jul-18 00:30N 37°04' E 013°33'1019.6
2018-Jul-18 00:00N 36°59' E 013°44'1019.5
2018-Jul-17 23:29N 36°54' E 013°55'919.5
2018-Jul-17 23:00N 36°50' E 014°05'1019.4
2018-Jul-17 22:30N 36°45' E 014°16'1018.6
2018-Jul-17 21:59N 36°40' E 014°26'918.2
2018-Jul-17 21:30N 36°36' E 014°36'1018.9
2018-Jul-17 21:00N 36°33' E 014°47'82519.1
2018-Jul-16 01:43N 32°10' E 030°34'4919.2
2018-Jul-15 23:09N 31°56' E 031°30'419.3
2018-Jul-15 22:57N 31°54' E 031°34'819.2
2018-Jul-15 22:30N 31°51' E 031°43'918.4
2018-Jul-15 22:00N 31°48' E 031°53'917.6
2018-Jul-15 21:30N 31°43' E 032°02'1218.1
2018-Jul-15 20:51N 31°35' E 032°12'1813.6
2018-Jul-15 19:33N 31°20' E 032°23'214.2
2018-Jul-15 19:26N 31°19' E 032°22'511.1
2018-Jul-15 18:58N 31°13' E 032°21'1 0.9
2018-Jul-15 17:56N 31°13' E 032°21'  
Track history (hours):
 
Tides and Currents Weather Stations Pressure Air Temp Water Temp Dewpoint Dewpoint Depression Visibility Wind Speed Wind Dir Waves Ship Positions

MSC Mirjam

Last reported at 2018-Jul-23 04:01 UTC. Time now 2018-Jul-23 04:08 UTC.
Position N 52°32' E 003°38'.

Length 400 m; draft 12.4 m.

Type: Ship (hazmat cat A). MMSI: 636017684.

Date/timePositionNaut miles runAvg speedWind from/ knotsBaromVisibWave heightAir tempDewpointWater temp
2018-Jul-23 04:01N 52°32' E 003°38'816.1
2018-Jul-23 03:31N 52°24' E 003°32'816.3
2018-Jul-23 03:00N 52°18' E 003°23'816.2
2018-Jul-23 02:30N 52°13' E 003°14'816.3
2018-Jul-23 02:00N 52°06' E 003°05'816.7
2018-Jul-23 01:30N 52°00' E 002°56'816.8
2018-Jul-23 01:00N 51°54' E 002°47'817.0
2018-Jul-23 00:31N 51°47' E 002°38'917.2
2018-Jul-23 00:00N 51°41' E 002°29'917.4
2018-Jul-22 23:31N 51°34' E 002°20'917.1
2018-Jul-22 23:01N 51°27' E 002°12'815.3
2018-Jul-22 22:31N 51°20' E 002°07'714.4
2018-Jul-22 22:01N 51°14' E 002°02'816.2
2018-Jul-22 21:31N 51°10' E 001°51'816.1
2018-Jul-22 21:01N 51°05' E 001°42'815.3
2018-Jul-22 20:30N 50°60' E 001°32'917.9
2018-Jul-22 20:00N 50°52' E 001°25'917.2
2018-Jul-22 19:30N 50°44' E 001°21'816.8
2018-Jul-22 19:00N 50°38' E 001°12'816.8
2018-Jul-22 18:30N 50°32' E 001°02'816.4
2018-Jul-22 18:00N 50°29' E 000°50'816.7
2018-Jul-22 17:30N 50°26' E 000°38'816.0
2018-Jul-22 17:00N 50°24' E 000°26'816.2
2018-Jul-22 16:30N 50°22' E 000°13'816.1
2018-Jul-22 16:00N 50°19' E 000°01'816.1
2018-Jul-22 15:30N 50°17' W 000°11'816.8
2018-Jul-22 15:00N 50°15' W 000°24'917.4
2018-Jul-22 14:30N 50°12' W 000°37'917.2
2018-Jul-22 14:01N 50°10' W 000°49'816.8
2018-Jul-22 13:31N 50°08' W 001°02'817.0
2018-Jul-22 13:01N 50°06' W 001°15'917.7
2018-Jul-22 12:31N 50°03' W 001°28'917.2
2018-Jul-22 12:01N 50°01' W 001°41'917.3
2018-Jul-22 11:31N 49°59' W 001°54'917.1
2018-Jul-22 10:59N 49°56' W 002°07'816.8
2018-Jul-22 10:31N 49°54' W 002°19'816.7
2018-Jul-22 10:00N 49°52' W 002°32'816.5
2018-Jul-22 09:30N 49°49' W 002°44'816.6
2018-Jul-22 09:00N 49°47' W 002°56'816.8
2018-Jul-22 08:30N 49°42' W 003°07'816.7
2018-Jul-22 08:00N 49°38' W 003°18'816.8
2018-Jul-22 07:30N 49°34' W 003°30'1016.8
2018-Jul-22 06:56N 49°30' W 003°43'716.6
2018-Jul-22 06:30N 49°26' W 003°53'816.7
2018-Jul-22 06:00N 49°22' W 004°04'918.1
2018-Jul-22 05:30N 49°18' W 004°16'918.4
2018-Jul-22 05:00N 49°13' W 004°28'918.5
2018-Jul-22 04:30N 49°09' W 004°40'918.6
2018-Jul-22 04:00N 49°04' W 004°53'1018.6
2018-Jul-22 03:29N 48°59' W 005°06'918.3
2018-Jul-22 03:00N 48°55' W 005°17'918.6
2018-Jul-22 02:31N 48°50' W 005°29'918.2
2018-Jul-22 02:00N 48°44' W 005°40'918.5
2018-Jul-22 01:31N 48°36' W 005°46'918.3
2018-Jul-22 01:01N 48°28' W 005°53'54618.5
2018-Jul-20 19:35N 39°50' W 009°52'2319.0
2018-Jul-20 18:24N 39°27' W 009°52'1018.9
2018-Jul-20 17:50N 39°16' W 009°51'619.0
2018-Jul-20 17:30N 39°10' W 009°51'918.7
2018-Jul-20 17:00N 39°01' W 009°51'1019.0
2018-Jul-20 16:30N 38°51' W 009°51'1019.2
2018-Jul-20 16:01N 38°42' W 009°51'1019.4
2018-Jul-20 15:30N 38°32' W 009°48'1019.3
2018-Jul-20 15:00N 38°23' W 009°46'1019.0
2018-Jul-20 14:30N 38°14' W 009°42'1019.0
2018-Jul-20 13:59N 38°04' W 009°40'919.0
2018-Jul-20 13:30N 37°55' W 009°38'1018.8
2018-Jul-20 13:00N 37°46' W 009°35'918.6
2018-Jul-20 12:31N 37°37' W 009°32'1019.4
2018-Jul-20 12:00N 37°27' W 009°29'6817.4
2018-Jul-20 08:06N 36°36' W 008°34'219.5
2018-Jul-20 08:01N 36°35' W 008°32'1319.7
2018-Jul-20 07:22N 36°31' W 008°18'919.7
2018-Jul-20 06:55N 36°28' W 008°07'820.1
2018-Jul-20 06:30N 36°26' W 007°57'1019.9
2018-Jul-20 06:00N 36°23' W 007°45'1120.1
2018-Jul-20 05:27N 36°19' W 007°32'1020.3
2018-Jul-20 04:59N 36°16' W 007°21'6219.7
2018-Jul-20 01:51N 35°58' W 006°08'819.3
2018-Jul-20 01:24N 35°59' W 005°57'1917.5
2018-Jul-20 00:19N 35°59' W 005°33'515.0
2018-Jul-19 23:58N 36°01' W 005°27'21718.6
2018-Jul-19 12:18N 36°35' W 001°01'620.5
2018-Jul-19 12:00N 36°36' W 000°53'1020.6
2018-Jul-19 11:31N 36°38' W 000°41'2320.7
2018-Jul-19 10:23N 36°42' W 000°12'1020.6
2018-Jul-19 09:53N 36°43' E 000°00'820.3
2018-Jul-19 09:30N 36°44' E 000°10'1019.3
2018-Jul-19 09:00N 36°46' E 000°22'1018.8
2018-Jul-19 08:28N 36°48' E 000°34'918.8
2018-Jul-19 08:00N 36°49' E 000°45'1019.1
2018-Jul-19 07:29N 36°51' E 000°57'919.7
2018-Jul-19 07:01N 36°52' E 001°09'1019.6
2018-Jul-19 06:29N 36°54' E 001°21'919.6
2018-Jul-19 06:00N 36°55' E 001°33'1019.6
2018-Jul-19 05:31N 36°57' E 001°45'2219.5
2018-Jul-19 04:24N 37°00' E 002°12'1219.3
2018-Jul-19 03:46N 37°02' E 002°27'519.9
2018-Jul-19 03:31N 37°03' E 002°33'2620.4
2018-Jul-19 02:15N 37°07' E 003°05'520.8
2018-Jul-19 02:00N 37°08' E 003°11'1021.0
2018-Jul-19 01:30N 37°10' E 003°24'4020.9
2018-Jul-18 23:34N 37°16' E 004°14'120.9
2018-Jul-18 23:30N 37°16' E 004°16'1020.6
2018-Jul-18 23:00N 37°18' E 004°29'1020.3
2018-Jul-18 22:30N 37°20' E 004°41'1020.3
2018-Jul-18 22:00N 37°22' E 004°54'1520.3
2018-Jul-18 21:17N 37°24' E 005°12'620.9
2018-Jul-18 21:00N 37°25' E 005°19'1121.0
2018-Jul-18 20:30N 37°27' E 005°33'1121.2
2018-Jul-18 19:58N 37°28' E 005°47'2321.0
2018-Jul-18 18:51N 37°32' E 006°16'721.2
2018-Jul-18 18:30N 37°34' E 006°25'4121.0
2018-Jul-18 16:32N 37°40' E 007°16'121.0
2018-Jul-18 16:30N 37°40' E 007°17'1020.6
2018-Jul-18 16:00N 37°42' E 007°30'1020.5
2018-Jul-18 15:30N 37°44' E 007°43'1020.6
2018-Jul-18 15:00N 37°45' E 007°56'27118.7
2018-Jul-18 00:32N 37°05' E 013°33'119.6
2018-Jul-18 00:30N 37°04' E 013°33'1019.6
2018-Jul-18 00:00N 36°59' E 013°44'1019.5
2018-Jul-17 23:29N 36°54' E 013°55'919.5
2018-Jul-17 23:00N 36°50' E 014°05'1019.4
2018-Jul-17 22:30N 36°45' E 014°16'1018.6
2018-Jul-17 21:59N 36°40' E 014°26'918.2
2018-Jul-17 21:30N 36°36' E 014°36'1018.9
2018-Jul-17 21:00N 36°33' E 014°47'82519.1
2018-Jul-16 01:43N 32°10' E 030°34'4919.2
2018-Jul-15 23:09N 31°56' E 031°30'419.3
2018-Jul-15 22:57N 31°54' E 031°34'819.2
2018-Jul-15 22:30N 31°51' E 031°43'918.4
2018-Jul-15 22:00N 31°48' E 031°53'917.6
2018-Jul-15 21:30N 31°43' E 032°02'1218.1
2018-Jul-15 20:51N 31°35' E 032°12'1813.6
2018-Jul-15 19:33N 31°20' E 032°23'214.2
2018-Jul-15 19:26N 31°19' E 032°22'511.1
2018-Jul-15 18:58N 31°13' E 032°21'1 0.9
2018-Jul-15 17:56N 31°13' E 032°21'  

Dump ship's entire track history